Time;durP1;ratioP1;P1;durP2;ratioP2;P2;SDS_P1;SDS_P2;PMS_P1;PMS_P2;Temp;Humidity;BMP_temperature;BMP_pressure;BME280_temperature;BME280_humidity;BME280_pressure;Samples;Min_cycle;Max_cycle;Signal;HPM_P1;HPM_P2
2022/02/06 00:01:11;;;;;;;7.70;1.23;;;6.20;99.90;;;;;;6057166;23;20010;-88
2022/02/06 00:03:37;;;;;;;3.30;0.75;;;6.10;99.90;;;;;;6072878;23;20037;-88
2022/02/06 00:06:03;;;;;;;10.18;1.52;;;6.10;99.90;;;;;;6072559;23;20009;-88
2022/02/06 00:08:29;;;;;;;2.35;0.63;;;6.20;99.90;;;;;;6070850;23;20068;-88
2022/02/06 00:10:54;;;;;;;4.38;1.05;;;6.20;99.90;;;;;;6095462;23;20402;-87
2022/02/06 00:13:20;;;;;;;5.20;0.98;;;6.20;99.90;;;;;;6071995;23;20537;-88
2022/02/06 00:15:45;;;;;;;6.93;0.85;;;6.10;99.90;;;;;;6069075;23;20033;-88
2022/02/06 00:18:11;;;;;;;3.53;1.15;;;6.20;99.90;;;;;;6073663;23;20013;-88
2022/02/06 00:20:47;;;;;;;6.05;1.10;;;6.10;99.90;;;;;;6059751;23;20013;-88
2022/02/06 00:23:15;;;;;;;4.85;0.95;;;6.10;99.90;;;;;;6050403;23;20049;-87
2022/02/06 00:31:21;;;;;;;3.85;1.08;;;6.10;99.90;;;;;;6122513;23;20017;-88
2022/02/06 00:39:06;;;;;;;5.20;1.77;;;6.10;99.90;;;;;;6105245;23;20024;-88
2022/02/06 00:41:35;;;;;;;8.07;1.85;;;6.10;99.90;;;;;;6097273;23;20014;-88
2022/02/06 00:44:02;;;;;;;6.20;1.27;;;6.10;99.90;;;;;;6073660;23;20040;-88
2022/02/06 00:46:28;;;;;;;5.03;1.55;;;6.00;99.90;;;;;;6074328;23;20441;-89
2022/02/06 00:48:57;;;;;;;1.92;1.13;;;6.10;99.90;;;;;;6073310;23;20006;-88
2022/02/06 00:52:09;;;;;;;6.80;1.77;;;6.10;99.90;;;;;;6073974;23;20010;-88
2022/02/06 00:54:11;;;;;;;4.32;1.33;;;6.10;99.90;;;;;;6092496;23;20009;-87
2022/02/06 00:56:39;;;;;;;9.50;1.40;;;6.10;99.90;;;;;;6098103;23;20443;-88
2022/02/06 00:59:05;;;;;;;11.25;1.35;;;6.00;99.90;;;;;;6098024;23;20015;-88
2022/02/06 01:01:30;;;;;;;3.03;1.48;;;6.10;99.90;;;;;;6073430;23;20662;-88
2022/02/06 01:03:56;;;;;;;6.25;1.65;;;6.10;99.90;;;;;;6072710;23;20092;-88
2022/02/06 01:06:22;;;;;;;1.08;0.98;;;6.00;99.90;;;;;;6096603;23;20080;-87
2022/02/06 01:08:48;;;;;;;9.63;2.42;;;6.10;99.90;;;;;;6095087;23;20010;-88
2022/02/06 01:11:13;;;;;;;4.80;0.95;;;6.00;99.90;;;;;;6096473;23;20447;-88
2022/02/06 01:13:58;;;;;;;8.52;0.80;;;6.10;99.90;;;;;;6073236;23;20024;-88
2022/02/06 01:16:56;;;;;;;5.65;1.15;;;6.00;99.90;;;;;;6079457;23;20014;-88
2022/02/06 01:19:26;;;;;;;4.38;1.50;;;6.10;99.90;;;;;;6099631;23;20051;-88
2022/02/06 01:22:03;;;;;;;5.03;1.27;;;6.10;99.90;;;;;;6074269;23;20017;-88
2022/02/06 01:24:56;;;;;;;5.43;1.38;;;6.10;99.90;;;;;;6077172;23;20435;-88
2022/02/06 01:27:31;;;;;;;2.28;0.90;;;6.00;99.90;;;;;;6082709;23;20021;-88
2022/02/06 01:30:08;;;;;;;9.13;1.90;;;6.00;99.90;;;;;;6077731;23;20010;-88
2022/02/06 01:32:42;;;;;;;6.43;1.52;;;6.10;99.90;;;;;;6077993;23;20010;-87
2022/02/06 01:35:15;;;;;;;4.07;0.85;;;6.10;99.90;;;;;;6076312;23;20022;-88
2022/02/06 01:40:27;;;;;;;5.57;1.23;;;6.10;99.90;;;;;;6097455;23;20014;-88
2022/02/06 01:43:01;;;;;;;5.28;1.45;;;6.20;99.90;;;;;;6104322;23;20079;-88
2022/02/06 01:45:57;;;;;;;9.57;2.67;;;6.10;99.90;;;;;;6063903;23;20017;-88
2022/02/06 02:31:57;;;;;;;8.38;2.00;;;6.20;99.90;;;;;;6095495;23;20316;-88
2022/02/06 02:45:27;;;;;;;6.10;1.67;;;6.20;99.90;;;;;;6104730;23;20013;-88
2022/02/06 02:47:50;;;;;;;6.40;1.77;;;6.10;99.90;;;;;;6105463;23;20454;-88
2022/02/06 02:50:20;;;;;;;11.77;2.63;;;6.10;99.90;;;;;;6074006;23;20010;-88
2022/02/06 02:55:47;;;;;;;1.60;0.95;;;6.20;99.90;;;;;;6097623;23;20020;-88
2022/02/06 03:03:13;;;;;;;2.97;1.27;;;6.20;99.90;;;;;;6099823;23;20092;-87
2022/02/06 03:05:40;;;;;;;3.60;1.38;;;6.10;99.90;;;;;;6077375;23;20058;-88
2022/02/06 03:08:07;;;;;;;6.93;1.63;;;6.10;99.90;;;;;;6071921;23;20020;-87
2022/02/06 03:10:33;;;;;;;5.28;1.70;;;6.10;99.90;;;;;;6097569;23;20016;-87
2022/02/06 03:13:01;;;;;;;5.82;2.13;;;6.20;99.90;;;;;;6072881;23;20046;-88
2022/02/06 03:15:41;;;;;;;3.30;1.42;;;6.10;99.90;;;;;;6071667;23;20018;-87
2022/02/06 03:18:21;;;;;;;7.70;2.05;;;6.20;99.90;;;;;;6103461;23;20379;-87
2022/02/06 03:20:47;;;;;;;7.18;1.77;;;6.10;99.90;;;;;;6075092;23;20031;-87
2022/02/06 03:23:14;;;;;;;6.55;2.22;;;6.20;99.90;;;;;;6070639;23;20093;-87
2022/02/06 03:25:53;;;;;;;4.03;2.13;;;6.20;99.90;;;;;;6072467;23;20067;-87
2022/02/06 03:28:19;;;;;;;2.75;1.67;;;6.20;99.90;;;;;;6077498;23;20017;-88
2022/02/06 03:30:45;;;;;;;3.83;1.38;;;6.20;99.90;;;;;;6070021;23;20017;-88
2022/02/06 03:33:10;;;;;;;6.22;1.45;;;6.20;99.90;;;;;;6072275;23;20013;-87
2022/02/06 03:35:36;;;;;;;3.55;1.45;;;6.20;99.90;;;;;;6059454;23;20060;-87
2022/02/06 03:38:02;;;;;;;3.35;1.33;;;6.20;99.90;;;;;;6067309;23;20009;-87
2022/02/06 03:40:30;;;;;;;7.45;1.40;;;6.20;99.90;;;;;;6072190;23;20402;-87
2022/02/06 03:43:17;;;;;;;4.78;2.05;;;6.10;99.90;;;;;;6073863;23;20026;-88
2022/02/06 03:45:48;;;;;;;9.50;2.40;;;6.20;99.90;;;;;;6074707;23;20088;-88
2022/02/06 03:48:25;;;;;;;11.23;1.13;;;6.20;99.90;;;;;;6098400;23;20017;-88
2022/02/06 03:50:52;;;;;;;8.35;2.15;;;6.20;99.90;;;;;;6075718;23;20443;-88
2022/02/06 03:53:22;;;;;;;7.32;2.38;;;6.20;99.90;;;;;;6071362;23;20010;-88
2022/02/06 03:55:48;;;;;;;10.48;1.83;;;6.20;99.90;;;;;;6073755;23;20026;-88
2022/02/06 03:58:14;;;;;;;8.20;2.10;;;6.10;99.90;;;;;;6073813;23;20013;-88
2022/02/06 04:00:40;;;;;;;7.13;1.67;;;6.20;99.90;;;;;;6069639;23;20490;-88
2022/02/06 04:03:05;;;;;;;5.30;2.00;;;6.20;99.90;;;;;;6073006;23;20021;-88
2022/02/06 04:05:31;;;;;;;5.28;1.60;;;6.20;99.90;;;;;;6072981;23;20018;-88
2022/02/06 04:07:57;;;;;;;6.95;1.63;;;6.20;99.90;;;;;;6093704;23;20385;-88
2022/02/06 04:10:22;;;;;;;5.35;1.60;;;6.20;99.90;;;;;;6071478;23;20014;-87
2022/02/06 04:12:49;;;;;;;4.97;2.38;;;6.20;99.90;;;;;;6072054;23;20462;-87
2022/02/06 04:15:25;;;;;;;3.65;1.65;;;6.10;99.90;;;;;;6093840;23;20016;-88
2022/02/06 04:18:06;;;;;;;3.47;1.17;;;6.20;99.90;;;;;;6076028;23;20009;-88
2022/02/06 04:20:35;;;;;;;4.43;1.55;;;6.20;99.90;;;;;;6078143;23;20009;-88
2022/02/06 04:23:00;;;;;;;6.28;1.73;;;6.20;99.90;;;;;;6073210;23;20089;-88
2022/02/06 04:25:26;;;;;;;5.15;1.98;;;6.20;99.90;;;;;;6074046;23;20036;-87
2022/02/06 04:27:51;;;;;;;9.23;2.70;;;6.20;99.90;;;;;;6072816;23;20395;-88
2022/02/06 04:30:17;;;;;;;6.55;1.63;;;6.20;99.90;;;;;;6071421;23;20010;-87
2022/02/06 04:32:42;;;;;;;6.78;1.73;;;6.20;99.90;;;;;;6076062;23;20330;-88
2022/02/06 04:35:14;;;;;;;2.45;1.30;;;6.20;99.90;;;;;;6072941;23;20005;-87
2022/02/06 04:37:54;;;;;;;8.70;1.77;;;6.20;99.90;;;;;;6095171;23;20009;-87
2022/02/06 04:40:39;;;;;;;2.95;1.13;;;6.30;99.90;;;;;;6077726;23;20157;-87
2022/02/06 04:48:35;;;;;;;3.20;1.33;;;6.20;99.90;;;;;;6095655;23;20060;-87
2022/02/06 05:16:16;;;;;;;3.88;1.48;;;6.20;99.90;;;;;;6102641;23;20526;-88
2022/02/06 05:19:12;;;;;;;3.15;1.85;;;6.20;99.90;;;;;;6081540;23;20336;-87
2022/02/06 05:29:23;;;;;;;6.97;2.20;;;6.30;99.90;;;;;;6101522;23;20163;-88
2022/02/06 05:34:12;;;;;;;4.20;2.35;;;6.30;99.90;;;;;;6098030;23;20016;-88
2022/02/06 05:36:37;;;;;;;3.83;2.40;;;6.30;99.90;;;;;;6098276;23;20009;-88
2022/02/06 05:39:06;;;;;;;7.50;1.90;;;6.30;99.90;;;;;;6071135;23;20005;-87
2022/02/06 05:41:32;;;;;;;5.93;1.58;;;6.30;99.90;;;;;;6073535;23;20005;-87
2022/02/06 05:43:57;;;;;;;7.45;1.42;;;6.40;99.90;;;;;;6072930;23;20005;-88
2022/02/06 05:46:24;;;;;;;5.95;1.80;;;6.30;99.90;;;;;;6073394;23;20013;-87
2022/02/06 05:48:50;;;;;;;4.57;1.70;;;6.20;99.90;;;;;;6072149;23;20521;-87
2022/02/06 05:51:16;;;;;;;6.68;1.88;;;6.30;99.90;;;;;;6072614;23;20017;-87
2022/02/06 05:53:41;;;;;;;8.20;2.50;;;6.30;99.90;;;;;;6069216;23;20041;-87
2022/02/06 05:56:07;;;;;;;7.13;2.13;;;6.30;99.90;;;;;;6073769;23;20428;-87
2022/02/06 05:58:32;;;;;;;4.85;1.95;;;6.30;99.90;;;;;;6072070;23;20018;-88
2022/02/06 06:00:58;;;;;;;2.58;1.83;;;6.30;99.90;;;;;;6071748;23;20021;-89
2022/02/06 06:03:23;;;;;;;1.98;1.33;;;6.30;99.90;;;;;;6071724;23;20083;-87
2022/02/06 06:05:49;;;;;;;4.13;1.65;;;6.30;99.90;;;;;;6072382;23;20016;-87
2022/02/06 06:08:15;;;;;;;3.45;1.88;;;6.30;99.90;;;;;;6072016;23;20071;-87
2022/02/06 06:10:40;;;;;;;5.97;2.05;;;6.30;99.90;;;;;;6072482;23;20010;-88
2022/02/06 06:13:06;;;;;;;3.28;1.40;;;6.30;99.90;;;;;;6075215;23;20459;-87
2022/02/06 06:15:31;;;;;;;4.32;1.95;;;6.30;99.90;;;;;;6072942;23;20041;-88
2022/02/06 06:18:02;;;;;;;7.03;2.03;;;6.30;99.90;;;;;;6076011;23;20482;-88
2022/02/06 06:20:29;;;;;;;1.77;1.27;;;6.40;99.90;;;;;;6101812;23;20009;-87
2022/02/06 06:22:55;;;;;;;7.30;2.05;;;6.40;99.90;;;;;;6074523;23;20017;-88
2022/02/06 06:25:20;;;;;;;1.63;1.23;;;6.40;99.90;;;;;;6075628;23;20066;-87
2022/02/06 06:27:46;;;;;;;4.78;1.10;;;6.40;99.90;;;;;;6074305;23;20434;-87
2022/02/06 06:30:12;;;;;;;4.97;1.70;;;6.40;99.90;;;;;;6075829;23;20064;-87
2022/02/06 06:32:37;;;;;;;4.45;1.40;;;6.40;99.90;;;;;;6074325;23;20010;-87
2022/02/06 06:35:05;;;;;;;4.03;1.42;;;6.40;99.90;;;;;;6074945;23;20010;-87
2022/02/06 06:37:31;;;;;;;2.20;1.40;;;6.40;99.90;;;;;;6074410;23;20014;-87
2022/02/06 06:39:57;;;;;;;5.47;1.63;;;6.40;99.90;;;;;;6099980;23;20085;-87
2022/02/06 06:42:22;;;;;;;4.07;1.75;;;6.50;99.90;;;;;;6075042;23;20459;-87
2022/02/06 06:44:48;;;;;;;2.83;1.30;;;6.40;99.90;;;;;;6073189;23;20160;-87
2022/02/06 06:47:13;;;;;;;1.38;0.95;;;6.50;99.90;;;;;;6075134;23;20037;-87
2022/02/06 06:49:39;;;;;;;3.10;1.48;;;6.50;99.90;;;;;;6099958;23;20009;-87
2022/02/06 06:52:05;;;;;;;11.32;2.13;;;6.50;99.90;;;;;;6071279;23;20065;-87
2022/02/06 06:54:38;;;;;;;1.63;1.13;;;6.40;99.90;;;;;;6074070;23;20093;-87
2022/02/06 07:02:16;;;;;;;6.80;1.30;;;6.40;99.90;;;;;;6099343;23;20443;-87
2022/02/06 07:04:42;;;;;;;4.68;1.63;;;6.50;99.90;;;;;;6078519;23;20018;-87
2022/02/06 07:07:08;;;;;;;1.63;1.20;;;6.50;99.90;;;;;;6071631;23;20017;-87
2022/02/06 07:09:34;;;;;;;4.43;1.70;;;6.50;99.90;;;;;;6074441;23;20017;-87
2022/02/06 07:11:59;;;;;;;3.53;1.15;;;6.50;99.90;;;;;;6072991;23;20018;-87
2022/02/06 07:14:27;;;;;;;6.88;2.10;;;6.50;99.90;;;;;;6073472;23;20497;-87
2022/02/06 07:16:55;;;;;;;2.22;1.02;;;6.50;99.90;;;;;;6071790;23;20025;-87
2022/02/06 07:19:21;;;;;;;3.28;1.35;;;6.50;99.90;;;;;;6074569;23;20032;-87
2022/02/06 07:21:46;;;;;;;5.95;2.30;;;6.50;99.90;;;;;;6061217;23;20034;-87
2022/02/06 07:24:15;;;;;;;4.03;1.60;;;6.50;99.90;;;;;;6070957;23;20681;-87
2022/02/06 07:26:44;;;;;;;3.63;1.88;;;6.60;99.90;;;;;;6065203;23;20014;-87
2022/02/06 07:29:15;;;;;;;8.45;2.88;;;6.50;99.90;;;;;;6071884;23;20265;-87
2022/02/06 07:31:42;;;;;;;8.15;2.00;;;6.60;99.90;;;;;;6069943;23;20283;-87
2022/02/06 07:34:08;;;;;;;3.78;1.35;;;6.50;99.90;;;;;;6073028;23;20595;-87
2022/02/06 07:36:43;;;;;;;;;;;;;;;;;;;;;
2022/02/06 07:39:09;;;;;;;1.05;0.60;;;6.60;99.90;;;;;;6098358;23;20016;-87
2022/02/06 07:41:35;;;;;;;2.58;1.33;;;6.50;99.90;;;;;;6045545;23;20037;-87
2022/02/06 07:44:04;;;;;;;6.45;2.53;;;6.50;99.90;;;;;;6079252;23;20052;-87
2022/02/06 07:46:34;;;;;;;3.05;1.67;;;6.50;99.90;;;;;;6073153;23;20018;-87
2022/02/06 07:49:02;;;;;;;4.15;1.83;;;6.60;99.90;;;;;;6042160;23;20065;-87
2022/02/06 07:51:28;;;;;;;11.60;2.50;;;6.60;99.90;;;;;;6072365;23;20009;-87
2022/02/06 07:53:54;;;;;;;9.02;2.05;;;6.60;99.90;;;;;;6075054;23;20013;-87
2022/02/06 07:56:20;;;;;;;1.52;1.10;;;6.60;99.90;;;;;;6095788;23;20017;-86
2022/02/06 07:58:45;;;;;;;2.95;1.58;;;6.60;99.90;;;;;;6069761;23;20052;-87
2022/02/06 08:01:16;;;;;;;5.75;2.40;;;6.60;99.90;;;;;;6066529;23;20016;-87
2022/02/06 08:03:43;;;;;;;7.45;2.25;;;6.70;99.90;;;;;;6096596;23;20009;-87
2022/02/06 08:06:10;;;;;;;5.18;1.60;;;6.70;99.90;;;;;;6072308;23;20300;-87
2022/02/06 08:08:36;;;;;;;2.25;1.17;;;6.70;99.90;;;;;;6063920;23;20028;-87
2022/02/06 08:11:20;;;;;;;4.43;1.35;;;6.70;99.90;;;;;;6077754;23;20075;-87
2022/02/06 08:17:45;;;;;;;5.13;1.00;;;6.70;99.90;;;;;;6111361;23;20156;-87
2022/02/06 08:20:20;;;;;;;1.95;0.93;;;6.70;99.90;;;;;;6098177;23;20024;-87
2022/02/06 08:22:46;;;;;;;3.17;1.35;;;6.70;99.90;;;;;;6066064;23;20009;-88
2022/02/06 08:25:12;;;;;;;5.72;1.00;;;6.70;99.90;;;;;;6096762;23;20012;-88
2022/02/06 08:27:38;;;;;;;3.30;1.65;;;6.70;99.90;;;;;;6084867;23;20123;-87
2022/02/06 08:30:04;;;;;;;4.72;1.25;;;6.60;99.90;;;;;;6072597;23;20006;-88
2022/02/06 08:32:29;;;;;;;0.90;0.55;;;6.70;99.90;;;;;;6081514;23;20001;-88
2022/02/06 08:35:27;;;;;;;3.63;1.20;;;6.70;99.90;;;;;;6059954;23;20650;-87
2022/02/06 08:37:52;;;;;;;3.00;1.35;;;6.70;99.90;;;;;;6090547;23;20014;-87
2022/02/06 08:40:44;;;;;;;4.55;1.10;;;6.70;99.90;;;;;;6080035;23;20073;-87
2022/02/06 08:43:13;;;;;;;1.38;0.93;;;6.70;99.90;;;;;;6096130;23;20067;-87
2022/02/06 08:46:30;;;;;;;2.53;0.77;;;6.70;99.90;;;;;;6069348;23;20017;-87
2022/02/06 08:48:55;;;;;;;3.17;0.80;;;6.70;99.90;;;;;;6122778;23;20028;-87
2022/02/06 08:51:22;;;;;;;1.38;0.95;;;6.80;99.90;;;;;;6072055;23;20017;-87
2022/02/06 08:53:47;;;;;;;2.53;0.82;;;6.70;99.90;;;;;;6093350;23;20399;-87
2022/02/06 08:56:14;;;;;;;1.65;0.63;;;6.70;99.90;;;;;;6071149;23;20005;-87
2022/02/06 08:58:40;;;;;;;2.15;0.80;;;6.70;99.90;;;;;;6071107;23;20017;-88
2022/02/06 09:01:05;;;;;;;0.90;0.52;;;6.80;99.90;;;;;;6067314;23;20016;-86
2022/02/06 09:03:31;;;;;;;0.82;0.40;;;6.70;99.90;;;;;;6093551;23;20120;-87
2022/02/06 09:05:57;;;;;;;2.05;0.63;;;6.80;99.90;;;;;;6072150;23;20099;-87
2022/02/06 09:08:22;;;;;;;2.33;0.82;;;6.80;99.90;;;;;;6069799;23;20451;-88
2022/02/06 09:11:00;;;;;;;1.15;0.93;;;6.80;99.90;;;;;;6040352;23;20101;-87
2022/02/06 09:13:25;;;;;;;2.17;1.00;;;6.80;99.90;;;;;;6079662;23;20104;-88
2022/02/06 09:15:51;;;;;;;5.25;1.00;;;6.80;99.90;;;;;;6065862;23;20044;-87
2022/02/06 09:18:17;;;;;;;1.58;0.75;;;6.80;99.90;;;;;;6070970;23;20012;-87
2022/02/06 09:20:42;;;;;;;1.42;0.70;;;6.80;99.90;;;;;;6069758;23;20036;-87
2022/02/06 09:23:08;;;;;;;0.98;0.75;;;6.80;99.90;;;;;;6070505;23;20378;-87
2022/02/06 09:25:33;;;;;;;2.75;0.65;;;6.80;99.90;;;;;;6070445;23;20415;-88
2022/02/06 09:28:00;;;;;;;2.75;1.08;;;6.80;99.90;;;;;;6070209;23;20026;-87
2022/02/06 09:30:30;;;;;;;1.95;0.60;;;6.90;99.90;;;;;;6058339;23;20438;-87
2022/02/06 09:35:22;;;;;;;2.35;1.00;;;6.90;99.90;;;;;;6119785;23;20044;-87
2022/02/06 09:37:48;;;;;;;1.67;0.68;;;6.90;99.90;;;;;;6070845;23;20024;-86
2022/02/06 09:40:15;;;;;;;1.85;0.82;;;6.90;99.90;;;;;;6055992;23;20014;-86
2022/02/06 09:42:42;;;;;;;2.03;0.80;;;6.90;99.90;;;;;;6071174;23;20017;-87
2022/02/06 09:45:09;;;;;;;1.35;0.80;;;6.90;99.90;;;;;;6071524;23;20041;-87
2022/02/06 09:47:38;;;;;;;1.00;0.55;;;6.90;99.90;;;;;;6069150;23;20013;-87
2022/02/06 09:50:04;;;;;;;0.93;0.35;;;7.00;99.90;;;;;;6072253;23;20351;-87
2022/02/06 09:52:30;;;;;;;1.38;0.30;;;7.00;99.90;;;;;;6070774;23;20396;-87
2022/02/06 09:55:06;;;;;;;0.30;0.30;;;7.00;99.90;;;;;;6070878;23;20032;-87
2022/02/06 09:57:41;;;;;;;0.75;0.50;;;7.00;99.90;;;;;;6060456;23;20017;-87
2022/02/06 10:00:07;;;;;;;1.15;0.47;;;7.00;99.90;;;;;;6062387;23;20013;-86
2022/02/06 10:02:38;;;;;;;1.75;0.60;;;6.90;99.90;;;;;;6068995;23;20271;-86
2022/02/06 10:05:05;;;;;;;0.90;0.70;;;7.00;99.90;;;;;;6070988;23;20045;-87
2022/02/06 10:07:38;;;;;;;2.42;0.57;;;7.00;99.90;;;;;;6055332;23;20458;-86
2022/02/06 10:10:05;;;;;;;1.95;0.77;;;7.00;99.90;;;;;;6057665;23;20040;-86
2022/02/06 10:12:35;;;;;;;1.17;0.65;;;7.00;99.90;;;;;;6042732;23;20033;-87
2022/02/06 10:15:01;;;;;;;0.90;0.40;;;7.00;99.90;;;;;;6040824;23;20040;-87
2022/02/06 10:17:26;;;;;;;1.00;0.38;;;7.00;99.90;;;;;;6042898;23;20493;-87
2022/02/06 10:19:56;;;;;;;2.95;0.65;;;7.00;99.90;;;;;;6082956;23;20048;-87
2022/02/06 10:22:36;;;;;;;0.75;0.50;;;7.00;99.90;;;;;;6070303;23;20020;-86
2022/02/06 10:25:10;;;;;;;1.25;0.60;;;7.00;99.90;;;;;;6041750;23;20085;-87
2022/02/06 10:28:00;;;;;;;0.68;0.30;;;7.00;99.90;;;;;;6076235;23;20017;-87
2022/02/06 10:30:39;;;;;;;3.58;0.50;;;7.10;99.90;;;;;;6092432;23;20862;-86
2022/02/06 10:33:21;;;;;;;0.52;0.50;;;6.80;99.90;;;;;;6091277;23;20469;-87
2022/02/06 10:35:53;;;;;;;3.88;0.63;;;6.90;99.90;;;;;;6071257;23;20028;-87
2022/02/06 10:38:23;;;;;;;0.65;0.57;;;6.90;99.90;;;;;;6070942;23;20020;-87
2022/02/06 10:41:12;;;;;;;1.35;0.40;;;6.90;99.90;;;;;;6092808;23;20061;-88
2022/02/06 10:44:01;;;;;;;0.57;0.30;;;6.80;99.90;;;;;;6080315;23;20042;-85
2022/02/06 10:46:45;;;;;;;1.20;0.20;;;6.90;99.90;;;;;;6094277;23;20584;-88
2022/02/06 10:49:13;;;;;;;3.00;0.95;;;6.90;99.90;;;;;;6067922;23;20006;-87
2022/02/06 10:51:42;;;;;;;0.57;0.47;;;6.90;99.90;;;;;;6065395;23;20065;-88
2022/02/06 10:54:28;;;;;;;0.68;0.47;;;6.90;99.90;;;;;;6085596;23;20446;-88
2022/02/06 10:57:05;;;;;;;3.00;0.77;;;6.90;99.90;;;;;;6097206;23;20045;-87
2022/02/06 10:59:56;;;;;;;0.65;0.50;;;6.80;99.90;;;;;;6101017;23;20240;-88
2022/02/06 11:02:57;;;;;;;0.85;0.30;;;6.80;99.90;;;;;;6066025;23;20045;-87
2022/02/06 11:05:33;;;;;;;0.40;0.30;;;6.80;99.90;;;;;;6097344;23;20024;-87
2022/02/06 11:08:08;;;;;;;0.52;0.30;;;6.90;99.90;;;;;;6083500;23;20125;-88
2022/02/06 11:10:41;;;;;;;0.28;0.20;;;6.80;99.90;;;;;;6069347;23;20018;-88
2022/02/06 11:13:21;;;;;;;0.30;0.17;;;6.90;99.90;;;;;;6058041;23;20048;-88
2022/02/06 11:15:47;;;;;;;0.30;0.30;;;6.80;99.90;;;;;;6049535;23;20102;-88
2022/02/06 11:18:25;;;;;;;0.85;0.30;;;6.80;99.90;;;;;;6049462;23;20060;-88
2022/02/06 11:21:04;;;;;;;0.63;0.30;;;6.90;99.90;;;;;;6060518;23;20010;-88
2022/02/06 11:23:44;;;;;;;1.70;0.35;;;6.80;99.90;;;;;;6046960;23;20009;-88
2022/02/06 11:26:22;;;;;;;1.67;0.40;;;6.80;99.90;;;;;;6116481;23;20009;-88
2022/02/06 11:28:59;;;;;;;0.55;0.28;;;6.90;99.90;;;;;;6054413;23;20018;-88
2022/02/06 11:31:28;;;;;;;0.98;0.30;;;6.80;99.90;;;;;;6081944;23;20342;-88
2022/02/06 11:34:17;;;;;;;0.95;0.38;;;6.80;99.90;;;;;;6007705;23;20447;-87
2022/02/06 11:50:25;;;;;;;1.67;0.40;;;6.80;99.90;;;;;;6000890;23;20015;-88
2022/02/06 11:56:46;;;;;;;0.90;0.20;;;6.80;99.90;;;;;;6018414;23;20014;-88
2022/02/06 11:59:15;;;;;;;0.20;0.20;;;6.80;99.90;;;;;;5992267;23;20018;-88
2022/02/06 12:01:42;;;;;;;0.25;0.22;;;6.80;99.90;;;;;;6060875;23;20008;-87
2022/02/06 12:04:20;;;;;;;0.88;0.30;;;6.80;99.90;;;;;;6070182;23;20081;-88
2022/02/06 12:06:48;;;;;;;1.65;0.40;;;6.80;99.90;;;;;;6095806;23;20021;-87
2022/02/06 12:09:14;;;;;;;0.65;0.38;;;6.80;99.90;;;;;;6108297;23;20005;-88
2022/02/06 12:12:07;;;;;;;0.98;0.40;;;6.80;99.90;;;;;;6071244;23;20300;-88
2022/02/06 12:14:53;;;;;;;3.95;0.43;;;6.80;99.90;;;;;;6105301;23;20415;-88
2022/02/06 12:17:43;;;;;;;4.63;0.30;;;6.80;99.90;;;;;;6061423;23;20068;-88
2022/02/06 12:20:13;;;;;;;0.57;0.32;;;6.80;99.90;;;;;;6069970;23;20350;-87
2022/02/06 12:22:46;;;;;;;0.50;0.38;;;6.80;99.90;;;;;;6115406;23;20503;-87
2022/02/06 12:25:35;;;;;;;1.33;0.40;;;6.80;99.90;;;;;;6069985;23;20010;-87
2022/02/06 12:28:30;;;;;;;0.10;0.10;;;6.80;99.90;;;;;;6080437;23;20574;-87
2022/02/06 12:31:12;;;;;;;0.38;0.30;;;6.80;99.90;;;;;;6072550;23;20524;-88
2022/02/06 12:33:44;;;;;;;1.42;0.35;;;6.80;99.90;;;;;;6092351;23;20010;-88
2022/02/06 12:39:32;;;;;;;1.27;0.30;;;6.80;99.90;;;;;;6124600;23;20554;-87
2022/02/06 12:42:01;;;;;;;0.17;0.17;;;6.90;99.90;;;;;;6054298;23;20383;-87
2022/02/06 12:45:06;;;;;;;0.40;0.30;;;6.90;99.90;;;;;;6064584;23;20101;-88
2022/02/06 12:47:32;;;;;;;0.65;0.30;;;6.90;99.90;;;;;;6100695;23;20100;-87
2022/02/06 12:49:57;;;;;;;2.05;0.50;;;6.90;99.90;;;;;;6095673;23;20718;-87
2022/02/06 12:52:25;;;;;;;0.10;0.10;;;7.00;99.90;;;;;;6065643;23;20044;-87
2022/02/06 12:54:57;;;;;;;0.70;0.20;;;7.00;99.90;;;;;;6020962;23;20074;-87
2022/02/06 12:57:23;;;;;;;0.45;0.30;;;7.00;99.90;;;;;;6084046;23;20455;-87
2022/02/06 12:59:49;;;;;;;1.08;0.32;;;7.00;99.90;;;;;;6075779;23;20020;-89
2022/02/06 13:02:20;;;;;;;2.50;0.40;;;7.00;99.90;;;;;;6074261;23;20013;-88
2022/02/06 13:04:58;;;;;;;0.70;0.30;;;7.10;99.90;;;;;;6092582;23;20016;-89
2022/02/06 13:07:30;;;;;;;0.85;0.35;;;7.20;99.90;;;;;;6057425;23;20036;-89
2022/02/06 13:10:02;;;;;;;2.38;0.20;;;7.20;99.90;;;;;;6056779;23;20014;-88
2022/02/06 13:13:03;;;;;;;0.77;0.40;;;7.20;99.90;;;;;;6082391;23;20009;-88
2022/02/06 13:18:52;;;;;;;1.50;0.83;;;7.30;99.90;;;;;;6079450;23;20022;-87
2022/02/06 13:21:33;;;;;;;1.48;1.00;;;7.30;99.90;;;;;;6064828;23;20233;-87
2022/02/06 13:24:16;;;;;;;2.40;0.60;;;7.30;99.90;;;;;;6098045;23;20521;-88
2022/02/06 13:27:03;;;;;;;2.97;1.00;;;7.20;99.90;;;;;;6078139;23;20080;-85
2022/02/06 13:29:50;;;;;;;1.30;0.30;;;7.20;99.90;;;;;;6080043;23;20028;-86
2022/02/06 13:32:44;;;;;;;1.15;0.50;;;7.10;99.90;;;;;;6078514;23;20012;-86
2022/02/06 13:37:47;;;;;;;2.67;0.63;;;6.90;99.90;;;;;;6082139;23;20010;-84
2022/02/06 13:40:33;;;;;;;1.35;0.38;;;6.80;99.90;;;;;;6075061;23;20230;-87
2022/02/06 13:43:40;;;;;;;0.65;0.32;;;6.80;99.90;;;;;;6041794;23;20014;-86
2022/02/06 13:46:19;;;;;;;0.65;0.30;;;6.70;99.90;;;;;;6081855;23;20052;-86
2022/02/06 13:49:14;;;;;;;0.95;0.55;;;6.80;99.90;;;;;;6053186;23;20018;-87
2022/02/06 13:51:50;;;;;;;1.27;0.55;;;6.80;99.90;;;;;;6087175;23;20460;-87
2022/02/06 13:54:16;;;;;;;2.70;0.30;;;6.90;99.90;;;;;;6078846;23;20423;-86
2022/02/06 13:56:45;;;;;;;2.15;0.43;;;6.70;99.90;;;;;;6058036;23;20064;-87
2022/02/06 13:59:19;;;;;;;2.90;0.98;;;6.70;99.90;;;;;;6055597;23;20013;-87
2022/02/06 14:01:53;;;;;;;1.98;1.10;;;6.80;99.90;;;;;;6045291;23;20013;-87
2022/02/06 14:04:36;;;;;;;4.97;1.25;;;6.70;99.90;;;;;;6093459;23;20013;-86
2022/02/06 14:07:22;;;;;;;1.25;0.98;;;6.60;99.90;;;;;;6058880;23;20036;-86
2022/02/06 14:10:09;;;;;;;2.53;1.40;;;6.60;99.90;;;;;;6094448;23;20075;-87
2022/02/06 14:12:53;;;;;;;;;;;6.50;99.90;;;;;;6062420;23;20001;-85
2022/02/06 14:15:24;;;;;;;2.22;1.13;;;6.50;99.90;;;;;;6119109;23;19917;-86
2022/02/06 14:18:23;;;;;;;1.85;0.80;;;6.50;99.90;;;;;;6082445;23;20014;-86
2022/02/06 14:21:40;;;;;;;;;;;;;;;;;;;;;
2022/02/06 14:24:09;;;;;;;2.15;0.68;;;6.50;99.90;;;;;;6078991;23;20882;-87
2022/02/06 14:27:08;;;;;;;2.72;0.73;;;6.50;99.90;;;;;;6041576;23;20002;-87
2022/02/06 14:29:41;;;;;;;2.20;0.50;;;6.50;99.90;;;;;;6053235;23;20514;-87
2022/02/06 14:35:16;;;;;;;0.65;0.47;;;6.50;99.90;;;;;;6031851;23;20608;-86
2022/02/06 14:38:05;;;;;;;0.70;0.30;;;6.50;99.90;;;;;;6057461;23;20514;-87
2022/02/06 14:43:33;;;;;;;3.38;0.57;;;6.50;99.90;;;;;;6071771;23;20020;-86
2022/02/06 14:48:55;;;;;;;2.30;0.55;;;6.50;99.90;;;;;;6062319;23;20479;-87
2022/02/06 14:51:29;;;;;;;1.67;0.50;;;6.50;99.90;;;;;;6046235;23;20152;-87
2022/02/06 14:54:30;;;;;;;1.27;0.43;;;6.50;99.90;;;;;;6095402;23;20369;-87
2022/02/06 14:57:12;;;;;;;4.82;0.60;;;6.40;99.90;;;;;;6121901;23;20461;-87
2022/02/06 14:59:53;;;;;;;1.00;0.50;;;6.40;99.90;;;;;;6083039;23;20013;-87
2022/02/06 15:02:19;;;;;;;0.20;0.20;;;6.50;99.90;;;;;;6051618;23;20014;-87
2022/02/06 15:04:49;;;;;;;2.50;0.85;;;6.40;99.90;;;;;;6044470;23;20020;-85
2022/02/06 15:07:20;;;;;;;3.97;0.57;;;6.40;99.90;;;;;;6042704;23;20009;-86
2022/02/06 15:09:47;;;;;;;0.43;0.10;;;6.40;99.90;;;;;;6100952;23;20017;-87
2022/02/06 15:12:13;;;;;;;1.23;0.82;;;6.40;99.90;;;;;;6082591;23;20477;-87
2022/02/06 15:14:41;;;;;;;4.55;0.75;;;6.40;99.90;;;;;;6096507;23;20095;-87
2022/02/06 15:17:06;;;;;;;2.60;0.98;;;6.30;99.90;;;;;;6056152;23;20017;-87
2022/02/06 15:19:36;;;;;;;0.75;0.47;;;6.40;99.90;;;;;;6066029;23;20066;-87
2022/02/06 15:22:45;;;;;;;1.77;1.10;;;6.40;99.90;;;;;;6020434;23;20443;-87
2022/02/06 15:25:12;;;;;;;3.67;0.98;;;6.30;99.90;;;;;;6143772;23;20021;-87
2022/02/06 15:27:40;;;;;;;4.15;1.05;;;6.20;99.90;;;;;;6059433;23;20052;-87
2022/02/06 15:30:10;;;;;;;3.08;1.13;;;6.20;99.90;;;;;;6071189;23;20018;-87
2022/02/06 15:32:35;;;;;;;1.67;1.08;;;6.20;99.90;;;;;;6016102;23;20046;-87
2022/02/06 15:35:01;;;;;;;3.65;0.55;;;6.20;99.90;;;;;;6063124;23;20010;-87
2022/02/06 15:38:18;;;;;;;4.03;1.50;;;6.20;99.90;;;;;;6074544;23;20073;-88
2022/02/06 15:40:44;;;;;;;2.27;0.67;;;6.30;99.90;;;;;;6131950;23;20017;-88
2022/02/06 15:43:22;;;;;;;1.60;0.88;;;6.30;99.90;;;;;;6082740;23;20060;-88
2022/02/06 15:45:56;;;;;;;2.67;0.57;;;6.20;99.90;;;;;;6041012;23;20018;-88
2022/02/06 15:48:52;;;;;;;2.72;1.02;;;6.20;99.90;;;;;;6089147;23;20017;-88
2022/02/06 15:51:28;;;;;;;7.85;0.82;;;6.20;99.90;;;;;;6099609;23;20010;-88
2022/02/06 15:54:15;;;;;;;1.27;0.65;;;6.20;99.90;;;;;;6097634;23;20017;-88
2022/02/06 15:56:41;;;;;;;3.05;0.70;;;6.20;99.90;;;;;;6117696;23;20403;-87
2022/02/06 15:59:06;;;;;;;2.40;0.75;;;6.20;99.90;;;;;;6078339;23;20156;-88
2022/02/06 16:01:43;;;;;;;6.13;0.90;;;6.10;99.90;;;;;;6074073;23;20355;-87
2022/02/06 16:04:11;;;;;;;1.45;0.88;;;6.20;99.90;;;;;;6081790;23;20494;-88
2022/02/06 16:06:38;;;;;;;4.72;1.77;;;6.10;99.90;;;;;;6070294;23;20014;-88
2022/02/06 16:09:04;;;;;;;2.50;0.73;;;6.10;99.90;;;;;;6071645;23;20024;-87
2022/02/06 16:11:32;;;;;;;3.50;0.85;;;6.10;99.90;;;;;;6077469;23;20365;-87